Time;durP1;ratioP1;P1;durP2;ratioP2;P2;SDS_P1;SDS_P2;PMS_P1;PMS_P2;Temp;Humidity;BMP_temperature;BMP_pressure;BME280_temperature;BME280_humidity;BME280_pressure;Samples;Min_cycle;Max_cycle;Signal;HPM_P1;HPM_P2
2023/01/07 00:00:51;;;;;;;3.70;2.03;;;;;;;22.06;42.07;95616.75;5020699;28;20056;-75
2023/01/07 00:03:16;;;;;;;4.70;2.33;;;;;;;22.03;41.99;95615.00;5040720;28;20124;-75
2023/01/07 00:05:42;;;;;;;3.42;1.92;;;;;;;21.88;42.06;95593.88;5003565;28;20053;-75
2023/01/07 00:08:08;;;;;;;4.20;2.40;;;;;;;21.87;42.24;95603.25;5013714;28;20041;-74
2023/01/07 00:10:33;;;;;;;3.70;2.10;;;;;;;22.06;42.12;95629.59;5019209;28;20181;-74
2023/01/07 00:12:59;;;;;;;4.15;2.25;;;;;;;22.06;42.17;95627.63;5013232;28;20034;-74
2023/01/07 00:15:24;;;;;;;3.53;2.20;;;;;;;21.91;42.01;95614.66;5016555;28;20775;-74
2023/01/07 00:17:50;;;;;;;3.50;2.30;;;;;;;22.01;42.09;95633.03;5016692;28;20072;-75
2023/01/07 00:20:15;;;;;;;4.03;2.22;;;;;;;21.76;42.19;95597.75;5021428;28;20045;-74
2023/01/07 00:22:41;;;;;;;3.95;2.15;;;;;;;21.85;42.35;95617.34;5023299;28;20526;-74
2023/01/07 00:25:06;;;;;;;3.95;2.10;;;;;;;21.41;42.27;95553.75;5023600;28;20045;-75
2023/01/07 00:27:32;;;;;;;4.47;2.67;;;;;;;21.94;42.25;95631.50;5021324;28;20142;-75
2023/01/07 00:29:57;;;;;;;3.88;2.40;;;;;;;21.89;42.18;95623.31;5024091;28;20033;-75
2023/01/07 00:32:46;;;;;;;3.75;2.05;;;;;;;21.73;42.21;95596.75;5039388;28;20045;-75
2023/01/07 00:35:21;;;;;;;3.97;2.35;;;;;;;21.82;42.31;95623.00;5028517;28;20117;-76
2023/01/07 00:37:49;;;;;;;3.42;2.10;;;;;;;21.81;42.29;95622.28;5010055;28;20025;-75
2023/01/07 00:40:15;;;;;;;3.13;2.25;;;;;;;21.78;42.52;95619.75;5019490;28;20041;-75
2023/01/07 00:42:53;;;;;;;3.63;2.50;;;;;;;21.68;42.42;95613.03;5007060;28;20041;-75
2023/01/07 00:45:19;;;;;;;3.75;2.30;;;;;;;21.31;41.88;95547.00;5008355;28;20058;-75
2023/01/07 00:47:44;;;;;;;3.13;2.13;;;;;;;21.49;42.46;95584.72;5013907;28;20655;-76
2023/01/07 00:50:09;;;;;;;3.65;2.50;;;;;;;21.81;42.51;95648.69;5020155;28;20045;-76
2023/01/07 00:52:35;;;;;;;3.40;2.30;;;;;;;21.26;42.31;95561.28;5014035;28;20037;-75
2023/01/07 00:55:00;;;;;;;4.07;2.30;;;;;;;21.68;42.75;95635.50;5021237;28;20599;-76
2023/01/07 00:57:26;;;;;;;3.33;2.38;;;;;;;21.75;42.62;95639.75;5019668;28;20071;-75
2023/01/07 00:59:51;;;;;;;3.47;2.50;;;;;;;21.73;42.44;95639.50;5012164;28;20026;-75
2023/01/07 01:02:16;;;;;;;4.45;2.40;;;;;;;21.79;42.45;95651.16;5007597;28;20033;-75
2023/01/07 01:04:42;;;;;;;3.40;2.40;;;;;;;21.61;42.48;95637.91;5015495;28;20054;-74
2023/01/07 01:07:07;;;;;;;3.97;2.58;;;;;;;21.54;42.77;95616.63;5021694;28;20212;-75
2023/01/07 01:09:33;;;;;;;3.58;2.70;;;;;;;21.64;42.52;95648.59;5019072;28;20152;-75
2023/01/07 01:11:58;;;;;;;2.95;2.30;;;;;;;21.71;42.69;95661.00;5028934;28;20025;-76
2023/01/07 01:14:24;;;;;;;4.45;2.60;;;;;;;21.65;42.57;95646.63;5017537;28;20421;-75
2023/01/07 01:16:49;;;;;;;3.53;2.42;;;;;;;21.71;42.71;95655.56;5010746;28;20048;-75
2023/01/07 01:19:14;;;;;;;3.60;2.50;;;;;;;21.44;42.74;95626.88;5039876;28;20131;-75
2023/01/07 01:21:40;;;;;;;3.70;2.38;;;;;;;21.70;42.55;95659.50;5003409;28;20091;-76
2023/01/07 01:24:06;;;;;;;3.28;2.42;;;;;;;21.65;42.45;95652.03;5016146;28;20025;-74
2023/01/07 01:26:31;;;;;;;3.80;2.55;;;;;;;21.66;42.57;95654.28;5030341;28;20420;-75
2023/01/07 01:28:57;;;;;;;4.40;2.47;;;;;;;21.44;42.43;95620.72;5033852;28;20523;-76
2023/01/07 01:31:22;;;;;;;4.10;2.78;;;;;;;21.52;42.69;95635.38;5025354;28;20463;-76
2023/01/07 01:33:47;;;;;;;4.40;3.05;;;;;;;21.44;42.79;95626.16;5016515;28;20042;-76
2023/01/07 01:36:13;;;;;;;4.53;2.80;;;;;;;21.10;42.47;95575.47;5007082;28;20030;-75
2023/01/07 01:38:39;;;;;;;4.03;2.80;;;;;;;21.54;42.48;95635.66;5007317;28;20053;-76
2023/01/07 01:41:05;;;;;;;4.85;2.90;;;;;;;21.67;42.47;95649.59;5012860;28;20030;-76
2023/01/07 01:43:33;;;;;;;4.63;3.10;;;;;;;21.37;42.48;95610.28;5025270;28;20041;-74
2023/01/07 01:46:03;;;;;;;4.95;3.20;;;;;;;21.37;42.56;95607.56;5019441;28;20022;-74
2023/01/07 01:48:29;;;;;;;3.70;2.55;;;;;;;21.51;42.47;95631.19;5019921;28;20341;-74
2023/01/07 01:50:55;;;;;;;4.72;2.70;;;;;;;21.39;42.79;95613.28;5002226;28;20026;-75
2023/01/07 01:53:20;;;;;;;5.28;3.17;;;;;;;21.64;42.49;95655.97;5024445;28;20041;-74
2023/01/07 01:55:52;;;;;;;4.65;3.13;;;;;;;21.13;42.50;95579.94;5017890;28;20045;-74
2023/01/07 01:58:34;;;;;;;4.32;3.05;;;;;;;21.48;42.49;95626.72;5005348;28;20309;-73
2023/01/07 02:01:00;;;;;;;4.22;2.88;;;;;;;21.61;42.64;95635.19;5024151;28;20091;-75
2023/01/07 02:03:26;;;;;;;5.10;3.05;;;;;;;21.56;42.66;95633.94;5019357;28;20455;-74
2023/01/07 02:05:51;;;;;;;4.95;3.03;;;;;;;21.02;42.75;95552.69;5007670;28;20021;-74
2023/01/07 02:08:22;;;;;;;4.70;3.05;;;;;;;21.53;42.57;95628.72;5014159;28;20041;-74
2023/01/07 02:10:50;;;;;;;4.43;3.17;;;;;;;21.07;43.12;95568.28;5022524;28;20450;-74
2023/01/07 02:13:35;;;;;;;6.30;3.50;;;;;;;21.40;42.67;95609.31;5024674;28;20041;-74
2023/01/07 02:16:24;;;;;;;4.35;3.20;;;;;;;21.54;42.90;95635.66;5021724;28;20034;-74
2023/01/07 02:19:15;;;;;;;4.30;3.10;;;;;;;21.59;42.79;95637.66;5025306;28;20099;-74
2023/01/07 02:22:02;;;;;;;4.82;2.97;;;;;;;21.34;42.56;95597.66;5013174;28;20076;-75
2023/01/07 02:24:53;;;;;;;4.57;2.95;;;;;;;21.15;42.66;95572.06;5038682;28;20064;-74
2023/01/07 02:27:44;;;;;;;5.00;3.40;;;;;;;21.09;42.54;95579.44;5038445;28;20065;-76
2023/01/07 02:30:28;;;;;;;4.63;3.13;;;;;;;21.50;42.54;95627.72;5008739;28;20025;-76
2023/01/07 02:32:59;;;;;;;5.65;3.60;;;;;;;21.49;42.76;95628.19;5013258;28;20095;-75
2023/01/07 02:35:24;;;;;;;4.97;3.22;;;;;;;21.50;42.56;95625.00;5026356;28;20508;-75
2023/01/07 02:37:56;;;;;;;5.28;3.15;;;;;;;21.49;42.78;95625.47;5021531;28;20026;-75
2023/01/07 02:40:53;;;;;;;4.22;3.20;;;;;;;21.40;42.36;95614.75;5037427;28;20049;-74
2023/01/07 02:43:34;;;;;;;5.15;3.22;;;;;;;21.47;42.84;95630.66;5016594;28;20045;-77
2023/01/07 02:46:05;;;;;;;4.18;2.92;;;;;;;21.47;42.65;95638.81;5006216;28;20038;-75
2023/01/07 02:48:30;;;;;;;6.05;3.53;;;;;;;21.03;42.73;95573.19;5020905;28;20025;-74
2023/01/07 02:50:55;;;;;;;5.20;3.30;;;;;;;21.18;42.76;95595.56;5016681;28;20013;-75
2023/01/07 02:53:21;;;;;;;4.95;3.30;;;;;;;21.29;42.67;95608.50;5036090;28;20072;-74
2023/01/07 02:56:08;;;;;;;5.78;3.00;;;;;;;21.41;42.79;95627.13;5003917;28;20748;-76
2023/01/07 02:58:58;;;;;;;5.55;3.20;;;;;;;21.41;42.88;95627.13;5008411;28;20046;-76
2023/01/07 03:01:42;;;;;;;5.43;2.92;;;;;;;21.41;42.73;95632.53;5020109;28;20045;-76
2023/01/07 03:04:30;;;;;;;5.57;3.63;;;;;;;21.40;42.64;95641.91;5033468;28;20148;-74
2023/01/07 03:07:17;;;;;;;5.45;3.47;;;;;;;21.38;42.96;95630.06;5027061;28;20064;-73
2023/01/07 03:09:46;;;;;;;4.95;3.25;;;;;;;21.39;42.81;95629.56;5018749;28;20095;-77
2023/01/07 03:12:33;;;;;;;4.38;3.25;;;;;;;21.39;43.05;95637.72;5020505;28;20101;-76
2023/01/07 03:15:09;;;;;;;4.18;2.95;;;;;;;21.39;42.70;95640.44;5019965;28;20168;-74
2023/01/07 03:18:12;;;;;;;4.93;3.35;;;;;;;21.34;42.80;95638.41;5013602;28;20080;-74
2023/01/07 03:20:38;;;;;;;4.93;3.38;;;;;;;20.82;42.80;95559.41;5013239;28;20062;-74
2023/01/07 03:23:05;;;;;;;5.82;3.72;;;;;;;21.28;42.65;95618.59;5016552;28;20053;-73
2023/01/07 03:25:30;;;;;;;4.97;3.60;;;;;;;21.30;42.84;95637.88;5008865;28;20143;-75
2023/01/07 03:27:56;;;;;;;5.13;3.47;;;;;;;21.21;43.00;95619.03;4999718;28;20037;-76
2023/01/07 03:30:21;;;;;;;5.07;3.38;;;;;;;21.37;42.73;95632.00;5007063;28;20459;-74
2023/01/07 03:33:16;;;;;;;4.90;3.65;;;;;;;21.34;42.79;95632.97;5006653;28;20033;-76
2023/01/07 03:35:44;;;;;;;5.65;3.58;;;;;;;21.17;42.80;95606.91;5040137;28;20154;-74
2023/01/07 03:38:09;;;;;;;7.05;3.95;;;;;;;21.31;42.71;95639.34;5022926;28;20029;-75
2023/01/07 03:40:35;;;;;;;4.78;3.90;;;;;;;21.12;42.75;95616.47;5020474;28;20120;-75
2023/01/07 03:43:00;;;;;;;5.00;3.53;;;;;;;21.29;43.39;95635.66;5012228;28;20100;-75
2023/01/07 03:45:26;;;;;;;5.05;3.67;;;;;;;21.29;43.20;95652.69;5021663;28;20029;-75
2023/01/07 03:47:53;;;;;;;5.75;4.03;;;;;;;21.08;42.67;95609.78;5030640;28;20079;-75
2023/01/07 03:50:18;;;;;;;5.18;3.13;;;;;;;21.07;42.74;95608.28;5006652;28;20124;-75
2023/01/07 03:52:44;;;;;;;5.50;3.53;;;;;;;21.30;42.87;95643.31;5012738;28;20045;-75
2023/01/07 03:55:09;;;;;;;5.63;3.63;;;;;;;21.27;42.92;95644.28;5023502;28;20034;-75
2023/01/07 03:57:35;;;;;;;4.70;3.60;;;;;;;21.17;42.90;95640.22;5008921;28;20018;-74
2023/01/07 04:00:00;;;;;;;6.05;4.03;;;;;;;21.05;42.91;95616.91;5016256;28;20457;-75
2023/01/07 04:02:26;;;;;;;5.22;3.53;;;;;;;20.66;42.88;95559.97;5009306;28;20022;-74
2023/01/07 04:04:51;;;;;;;5.53;3.58;;;;;;;21.24;42.86;95645.25;5020971;28;20523;-74
2023/01/07 04:07:17;;;;;;;5.63;3.55;;;;;;;21.25;42.67;95651.41;5019000;28;20421;-75
2023/01/07 04:09:42;;;;;;;5.35;3.88;;;;;;;21.29;42.40;95655.41;5016007;28;20052;-75
2023/01/07 04:12:08;;;;;;;5.38;3.63;;;;;;;20.96;42.84;95612.88;5025360;28;20135;-76
2023/01/07 04:14:33;;;;;;;5.20;3.88;;;;;;;21.13;42.89;95645.13;5016356;28;20033;-75
2023/01/07 04:16:59;;;;;;;4.68;3.60;;;;;;;21.17;42.94;95651.09;5022809;28;20468;-75
2023/01/07 04:19:24;;;;;;;5.45;3.90;;;;;;;21.13;42.80;95645.13;5024508;28;20512;-75
2023/01/07 04:21:49;;;;;;;4.80;3.40;;;;;;;21.23;43.03;95662.03;5011112;28;20041;-75
2023/01/07 04:24:15;;;;;;;4.45;3.28;;;;;;;21.22;42.64;95669.41;5022625;28;20020;-76
2023/01/07 04:26:40;;;;;;;4.13;3.13;;;;;;;21.15;43.00;95658.97;5023376;28;20056;-76
2023/01/07 04:29:06;;;;;;;5.00;3.53;;;;;;;20.95;42.87;95627.66;5021036;28;20073;-76
2023/01/07 04:31:31;;;;;;;4.40;3.42;;;;;;;21.11;42.86;95653.00;5022563;28;20034;-76
2023/01/07 04:33:57;;;;;;;4.95;3.40;;;;;;;21.20;42.84;95666.44;5005269;28;20045;-75
2023/01/07 04:36:22;;;;;;;5.55;3.70;;;;;;;21.19;42.82;95659.50;5023418;28;20037;-75
2023/01/07 04:38:47;;;;;;;5.13;3.42;;;;;;;21.15;42.89;95658.97;5012152;28;20021;-75
2023/01/07 04:41:13;;;;;;;5.63;3.78;;;;;;;21.19;43.00;95675.06;5032015;28;20065;-76
2023/01/07 04:43:38;;;;;;;6.10;3.85;;;;;;;21.12;43.26;95673.50;5027187;28;20262;-74
2023/01/07 04:46:04;;;;;;;4.75;3.42;;;;;;;21.19;43.14;95673.06;5019995;28;20489;-76
2023/01/07 04:48:30;;;;;;;5.47;3.53;;;;;;;21.09;43.12;95666.31;5023180;28;20013;-75
2023/01/07 04:50:55;;;;;;;4.85;2.95;;;;;;;21.18;43.01;95674.31;5024242;28;20022;-75
2023/01/07 04:53:20;;;;;;;5.68;3.63;;;;;;;21.18;43.04;95668.88;5012341;28;20046;-75
2023/01/07 04:55:46;;;;;;;4.95;3.35;;;;;;;21.13;43.11;95672.28;5022661;28;20589;-74
2023/01/07 04:58:11;;;;;;;4.70;3.40;;;;;;;21.17;42.85;95667.38;5038790;28;20046;-73
2023/01/07 05:00:37;;;;;;;5.30;3.67;;;;;;;21.17;43.16;95677.50;5042707;28;20146;-76
2023/01/07 05:03:02;;;;;;;4.93;3.33;;;;;;;21.20;42.80;95682.72;5026238;28;20067;-75
2023/01/07 05:05:28;;;;;;;4.65;3.28;;;;;;;20.65;42.82;95599.91;5009667;28;20783;-74
2023/01/07 05:07:53;;;;;;;5.70;3.72;;;;;;;21.18;42.75;95674.31;5018761;28;20041;-74
2023/01/07 05:10:18;;;;;;;5.78;3.58;;;;;;;21.12;42.80;95657.22;5041294;28;20041;-75
2023/01/07 05:12:44;;;;;;;4.55;3.50;;;;;;;21.18;42.99;95668.88;5028044;28;20044;-76
2023/01/07 05:15:09;;;;;;;4.88;3.05;;;;;;;21.16;43.07;95676.00;5040091;28;20029;-74
2023/01/07 05:17:35;;;;;;;4.53;3.40;;;;;;;20.50;42.66;95576.81;5018586;28;20407;-74
2023/01/07 05:20:00;;;;;;;5.75;3.75;;;;;;;21.18;42.72;95679.75;5010725;28;20042;-74
2023/01/07 05:22:26;;;;;;;5.00;3.40;;;;;;;21.16;42.92;95676.75;5018280;28;20033;-74
2023/01/07 05:24:51;;;;;;;5.22;3.60;;;;;;;21.00;42.62;95669.19;5005788;28;20033;-74
2023/01/07 05:27:17;;;;;;;5.75;3.83;;;;;;;21.10;42.98;95684.09;5032396;28;20060;-75
2023/01/07 05:29:42;;;;;;;6.55;4.18;;;;;;;20.97;42.81;95675.56;5018033;28;20495;-75
2023/01/07 05:32:07;;;;;;;5.40;3.42;;;;;;;21.15;42.84;95691.56;5033139;28;20088;-75
2023/01/07 05:34:33;;;;;;;5.38;3.60;;;;;;;21.15;42.83;95686.13;5026894;28;20049;-74
2023/01/07 05:36:58;;;;;;;5.32;3.35;;;;;;;20.96;42.68;95667.16;5021716;28;20038;-76
2023/01/07 05:39:24;;;;;;;4.93;3.42;;;;;;;20.98;42.70;95658.06;5033264;28;20448;-77
2023/01/07 05:41:50;;;;;;;5.88;3.83;;;;;;;21.53;42.62;95694.69;5042040;28;20033;-76
2023/01/07 05:44:15;;;;;;;4.80;3.33;;;;;;;21.86;41.67;95694.22;5010890;28;20042;-76
2023/01/07 05:46:41;;;;;;;5.43;3.70;;;;;;;22.08;41.37;95685.00;5016673;28;20034;-74
2023/01/07 05:49:06;;;;;;;4.25;3.30;;;;;;;22.20;41.09;95685.84;5017740;28;20050;-76
2023/01/07 05:51:32;;;;;;;5.22;3.22;;;;;;;22.04;41.00;95645.66;5008199;28;20119;-76
2023/01/07 05:53:57;;;;;;;5.07;3.55;;;;;;;22.42;40.63;95686.75;5005740;28;20026;-74
2023/01/07 05:56:22;;;;;;;4.38;3.10;;;;;;;22.26;40.70;95668.34;5011378;28;20446;-74
2023/01/07 05:58:48;;;;;;;5.07;3.45;;;;;;;22.49;40.79;95697.88;5024095;28;20036;-74
2023/01/07 06:01:13;;;;;;;4.88;3.30;;;;;;;22.47;40.68;95678.59;5009441;28;20037;-75
2023/01/07 06:03:39;;;;;;;5.85;3.50;;;;;;;22.50;40.15;95674.16;5005182;28;20045;-76
2023/01/07 06:06:07;;;;;;;5.07;3.40;;;;;;;22.62;40.24;95697.47;5001104;28;20026;-75
2023/01/07 06:08:36;;;;;;;5.32;3.75;;;;;;;22.57;40.08;95676.41;5016933;28;20099;-75
2023/01/07 06:11:01;;;;;;;4.15;3.00;;;;;;;22.73;40.20;95700.25;5014464;28;20505;-74
2023/01/07 06:13:27;;;;;;;5.13;3.33;;;;;;;22.70;39.81;95679.44;5010152;28;20088;-74
2023/01/07 06:15:58;;;;;;;5.30;3.60;;;;;;;22.83;39.94;95693.38;5017895;28;20049;-74
2023/01/07 06:18:23;;;;;;;4.20;2.90;;;;;;;22.68;39.88;95676.47;5007139;28;20763;-74
2023/01/07 06:20:49;;;;;;;5.10;3.33;;;;;;;22.76;39.67;95693.81;5021443;28;20052;-73
2023/01/07 06:23:15;;;;;;;4.50;3.08;;;;;;;22.86;39.99;95703.28;5025747;28;20132;-76
2023/01/07 06:25:40;;;;;;;4.32;3.30;;;;;;;22.74;39.98;95674.53;5025873;28;20045;-76
2023/01/07 06:28:05;;;;;;;4.78;3.42;;;;;;;23.01;39.48;95697.16;5024719;28;20038;-74
2023/01/07 06:30:31;;;;;;;4.93;3.45;;;;;;;23.02;39.78;95701.41;5013384;28;20481;-74
2023/01/07 06:32:56;;;;;;;4.97;3.58;;;;;;;23.08;39.30;95704.88;4999904;28;20060;-75
2023/01/07 06:35:22;;;;;;;4.72;3.20;;;;;;;23.13;39.32;95717.03;5010760;28;20373;-75
2023/01/07 06:37:47;;;;;;;4.72;3.10;;;;;;;22.93;39.55;95704.34;4990693;28;20432;-75
2023/01/07 06:40:13;;;;;;;4.53;3.10;;;;;;;23.03;39.30;95702.91;4987304;28;20034;-74
2023/01/07 06:42:38;;;;;;;4.45;3.28;;;;;;;22.88;39.24;95669.63;5011300;28;20048;-75
2023/01/07 06:45:04;;;;;;;4.45;3.03;;;;;;;22.97;39.09;95677.63;5028854;28;20036;-74
2023/01/07 06:47:29;;;;;;;4.75;3.33;;;;;;;22.99;39.52;95683.31;5025167;28;20038;-75
2023/01/07 06:49:55;;;;;;;4.63;3.00;;;;;;;23.20;39.30;95733.66;5010637;28;20034;-75
2023/01/07 06:52:20;;;;;;;4.35;2.90;;;;;;;23.12;39.12;95697.22;5023152;28;20112;-76
2023/01/07 06:54:46;;;;;;;4.45;3.10;;;;;;;23.17;39.34;95693.78;5007525;28;20045;-75
2023/01/07 06:57:11;;;;;;;4.20;2.88;;;;;;;23.11;39.24;95682.09;5003397;28;20109;-76
2023/01/07 06:59:37;;;;;;;4.95;3.20;;;;;;;23.18;39.58;95708.88;5020789;28;20076;-76
2023/01/07 07:02:02;;;;;;;4.68;3.08;;;;;;;23.15;39.01;95688.06;5010130;28;20050;-74
2023/01/07 07:04:28;;;;;;;4.78;3.20;;;;;;;23.38;39.26;95722.31;5028519;28;20041;-76
2023/01/07 07:06:53;;;;;;;3.78;3.00;;;;;;;23.41;38.71;95721.34;5011917;28;20045;-74
2023/01/07 07:09:19;;;;;;;3.40;2.65;;;;;;;23.26;39.03;95712.63;5016213;28;20613;-74
2023/01/07 07:11:44;;;;;;;4.10;3.05;;;;;;;23.13;39.20;95709.59;5012897;28;20052;-75
2023/01/07 07:14:10;;;;;;;3.72;2.60;;;;;;;22.88;39.40;95680.53;5014062;28;20042;-76
2023/01/07 07:16:36;;;;;;;3.95;2.80;;;;;;;23.19;39.15;95721.25;5025094;28;20567;-74
2023/01/07 07:19:01;;;;;;;4.65;3.28;;;;;;;23.16;39.62;95716.78;5012765;28;20167;-74
2023/01/07 07:21:26;;;;;;;3.90;2.97;;;;;;;23.24;39.50;95717.78;5025030;28;20089;-78
2023/01/07 07:23:52;;;;;;;5.28;3.00;;;;;;;23.41;39.22;95699.53;5025986;28;20041;-78
2023/01/07 07:26:17;;;;;;;3.97;3.00;;;;;;;23.60;38.69;95700.53;5041725;28;20042;-76
2023/01/07 07:28:43;;;;;;;4.25;2.95;;;;;;;23.74;39.17;95716.69;5018835;28;20048;-77
2023/01/07 07:31:09;;;;;;;4.75;3.00;;;;;;;23.56;38.78;95721.84;5001106;28;20045;-76
2023/01/07 07:33:34;;;;;;;4.80;3.13;;;;;;;23.80;39.01;95719.44;5012849;28;20116;-74
2023/01/07 07:36:00;;;;;;;4.93;3.10;;;;;;;23.84;39.02;95698.88;5012295;28;21606;-78
2023/01/07 07:38:25;;;;;;;4.40;2.90;;;;;;;23.77;39.18;95723.16;4997236;28;20072;-76
2023/01/07 07:40:51;;;;;;;4.78;2.55;;;;;;;23.79;38.90;95702.31;5033453;28;20040;-74
2023/01/07 07:43:16;;;;;;;4.43;2.75;;;;;;;23.67;38.38;95679.00;4991102;28;20676;-78
2023/01/07 07:45:42;;;;;;;4.60;2.80;;;;;;;23.89;38.78;95712.50;5017246;28;20474;-74
2023/01/07 07:48:07;;;;;;;3.95;2.78;;;;;;;23.83;38.57;95691.19;5014640;28;20034;-75
2023/01/07 07:50:33;;;;;;;4.43;2.78;;;;;;;24.46;38.01;95715.47;5013323;28;20029;-79
2023/01/07 07:52:59;;;;;;;4.68;3.08;;;;;;;24.38;37.65;95714.50;5017778;28;20053;-75
2023/01/07 07:55:24;;;;;;;5.13;3.13;;;;;;;24.29;38.02;95703.81;5024878;28;20045;-77
2023/01/07 07:57:52;;;;;;;4.50;2.83;;;;;;;23.79;37.80;95611.59;5001000;28;20026;-76
2023/01/07 08:00:18;;;;;;;5.00;3.22;;;;;;;24.19;37.85;95705.28;5008655;28;20029;-78
2023/01/07 08:02:43;;;;;;;5.47;3.00;;;;;;;24.49;37.56;95698.09;5036171;28;20018;-77
2023/01/07 08:05:10;;;;;;;4.53;3.13;;;;;;;24.80;37.47;95712.16;5011984;28;20173;-75
2023/01/07 08:07:36;;;;;;;4.82;3.60;;;;;;;24.83;37.09;95720.06;5038861;28;20274;-73
2023/01/07 08:10:01;;;;;;;4.57;2.92;;;;;;;24.49;37.74;95725.38;5001450;28;20061;-77
2023/01/07 08:12:26;;;;;;;4.55;3.20;;;;;;;24.39;37.98;95732.34;5007627;28;20620;-76
2023/01/07 08:14:52;;;;;;;4.03;2.92;;;;;;;24.83;37.39;95728.28;5012669;28;20535;-77
2023/01/07 08:17:17;;;;;;;5.47;3.00;;;;;;;24.48;37.07;95652.91;5018640;28;20497;-75
2023/01/07 08:19:43;;;;;;;5.13;3.20;;;;;;;24.51;37.83;95711.97;5007083;28;20081;-76
2023/01/07 08:22:08;;;;;;;4.22;3.20;;;;;;;24.64;37.36;95698.53;5023799;28;20041;-76
2023/01/07 08:24:34;;;;;;;5.13;2.90;;;;;;;24.56;37.42;95687.38;5009905;28;20018;-77
2023/01/07 08:27:00;;;;;;;4.38;2.75;;;;;;;24.30;37.20;95669.78;5027039;28;20029;-77
2023/01/07 08:29:25;;;;;;;4.78;3.17;;;;;;;24.49;37.38;95719.94;5008434;28;20034;-76
2023/01/07 08:31:51;;;;;;;3.75;2.78;;;;;;;24.87;37.04;95723.31;5021855;28;20038;-78
2023/01/07 08:34:16;;;;;;;4.13;3.20;;;;;;;24.92;36.68;95714.34;5019288;28;20626;-78
2023/01/07 08:36:42;;;;;;;4.68;3.13;;;;;;;24.77;37.36;95712.38;5007900;28;20045;-77
2023/01/07 08:39:07;;;;;;;5.25;3.25;;;;;;;24.73;36.75;95679.16;5012901;28;20192;-78
2023/01/07 08:41:32;;;;;;;4.63;3.28;;;;;;;25.12;36.58;95711.28;5007981;28;20520;-76
2023/01/07 08:43:58;;;;;;;4.82;3.60;;;;;;;25.08;36.17;95656.16;5012665;28;20045;-74
2023/01/07 08:46:23;;;;;;;5.05;3.28;;;;;;;24.92;37.21;95714.34;5007697;28;20594;-74
2023/01/07 08:48:49;;;;;;;4.40;2.90;;;;;;;24.82;36.55;95678.88;5004059;28;20048;-74
2023/01/07 08:51:14;;;;;;;4.57;3.10;;;;;;;24.87;36.58;95678.81;5025982;28;20022;-74
2023/01/07 08:53:40;;;;;;;4.10;3.28;;;;;;;24.53;36.32;95605.72;5025933;28;20034;-77
2023/01/07 08:56:05;;;;;;;4.65;3.03;;;;;;;25.10;36.05;95680.25;5008115;28;20034;-79
2023/01/07 08:58:31;;;;;;;4.35;3.20;;;;;;;24.89;36.96;95693.47;5008141;28;20042;-74
2023/01/07 09:01:04;;;;;;;4.32;3.38;;;;;;;24.80;37.08;95708.66;5019655;28;20080;-74
2023/01/07 09:03:29;;;;;;;4.97;3.22;;;;;;;24.77;36.78;95663.22;5014340;28;20018;-74
2023/01/07 09:05:55;;;;;;;4.47;3.05;;;;;;;25.06;37.19;95696.91;5010067;28;20076;-76
2023/01/07 09:08:20;;;;;;;4.68;3.25;;;;;;;25.09;36.42;95695.91;5018556;28;20512;-73
2023/01/07 09:10:46;;;;;;;4.95;3.10;;;;;;;25.13;36.09;95674.53;5030002;28;20030;-75
2023/01/07 09:13:11;;;;;;;4.25;3.15;;;;;;;25.22;36.11;95657.81;5038823;28;20029;-73
2023/01/07 09:15:37;;;;;;;5.00;3.20;;;;;;;25.32;36.35;95683.63;5018218;28;20053;-71
2023/01/07 09:18:02;;;;;;;4.47;3.33;;;;;;;25.46;35.71;95668.88;5014497;28;20040;-74
2023/01/07 09:20:28;;;;;;;4.35;3.00;;;;;;;25.01;36.42;95673.09;5022966;28;20050;-76
2023/01/07 09:22:54;;;;;;;4.60;3.10;;;;;;;25.34;35.74;95656.50;5019460;28;20417;-73
2023/01/07 09:25:19;;;;;;;4.75;3.40;;;;;;;25.27;36.29;95650.84;5032371;28;20045;-73
2023/01/07 09:27:44;;;;;;;5.40;3.50;;;;;;;25.55;35.77;95665.81;5022776;28;20057;-73
2023/01/07 09:30:10;;;;;;;4.07;3.33;;;;;;;25.24;36.32;95663.53;5018570;28;20014;-73
2023/01/07 09:32:36;;;;;;;4.13;3.25;;;;;;;25.06;36.34;95631.31;5022565;28;20041;-73
2023/01/07 09:35:01;;;;;;;4.88;3.17;;;;;;;25.17;36.29;95653.16;5019135;28;20030;-73
2023/01/07 09:37:27;;;;;;;4.60;3.20;;;;;;;25.11;36.62;95651.66;5017254;28;20045;-73
2023/01/07 09:39:52;;;;;;;4.10;3.17;;;;;;;25.14;36.42;95626.81;5031259;28;20095;-74
2023/01/07 09:42:21;;;;;;;5.82;3.40;;;;;;;25.28;36.24;95647.59;5022848;28;20025;-75
2023/01/07 09:45:05;;;;;;;4.00;2.90;;;;;;;25.34;35.95;95642.84;5014303;28;20053;-74
2023/01/07 09:47:32;;;;;;;5.03;3.30;;;;;;;24.99;36.10;95593.63;5021146;28;20535;-73
2023/01/07 09:50:01;;;;;;;5.15;3.30;;;;;;;25.10;36.55;95601.75;5021935;28;20440;-75
2023/01/07 09:52:44;;;;;;;4.43;3.17;;;;;;;25.22;36.23;95599.69;5011448;28;20037;-74
2023/01/07 09:55:18;;;;;;;4.10;3.03;;;;;;;25.26;36.37;95617.31;5023443;28;20041;-73
2023/01/07 09:57:43;;;;;;;4.63;3.30;;;;;;;24.84;36.13;95544.00;5024963;28;20033;-74
2023/01/07 10:00:16;;;;;;;6.35;3.35;;;;;;;25.24;36.22;95586.25;5021905;28;20422;-73
2023/01/07 10:03:23;;;;;;;5.25;3.50;;;;;;;25.30;36.65;95609.56;5016482;28;20135;-73
2023/01/07 10:05:59;;;;;;;5.00;3.50;;;;;;;25.38;36.12;95613.22;4983040;28;20041;-74
2023/01/07 10:09:13;;;;;;;4.72;3.45;;;;;;;25.57;36.22;95603.88;5024061;28;20042;-74
2023/01/07 10:11:38;;;;;;;4.70;3.30;;;;;;;25.62;36.33;95594.13;4997523;28;20150;-74
2023/01/07 10:14:12;;;;;;;5.40;3.70;;;;;;;25.24;36.48;95586.97;5022538;28;20137;-73
2023/01/07 10:17:10;;;;;;;4.75;3.50;;;;;;;25.33;36.45;95556.59;5011044;28;20095;-73
2023/01/07 10:19:46;;;;;;;4.90;3.42;;;;;;;25.14;36.64;95555.00;5015976;28;20042;-74
2023/01/07 10:22:19;;;;;;;5.05;3.55;;;;;;;25.50;36.40;95579.84;5005800;28;20254;-74
2023/01/07 10:24:46;;;;;;;6.13;3.90;;;;;;;25.10;36.62;95533.41;5008186;28;20033;-75
2023/01/07 10:27:13;;;;;;;4.82;3.63;;;;;;;25.23;36.37;95547.25;5018843;28;20075;-73
2023/01/07 10:29:50;;;;;;;5.13;3.55;;;;;;;25.42;36.67;95559.00;5024596;28;20128;-73
2023/01/07 10:32:18;;;;;;;4.97;3.53;;;;;;;25.32;36.61;95541.44;5009462;28;20037;-73
2023/01/07 10:34:46;;;;;;;6.85;3.97;;;;;;;25.27;36.47;95531.28;5031238;28;20038;-73
2023/01/07 10:37:32;;;;;;;4.57;3.30;;;;;;;25.49;36.64;95550.25;5007385;28;20037;-73
2023/01/07 10:40:37;;;;;;;5.70;3.90;;;;;;;25.40;36.59;95550.56;5013815;28;20117;-73
2023/01/07 10:43:37;;;;;;;4.95;3.70;;;;;;;25.52;36.72;95541.75;5024626;28;20057;-74
2023/01/07 10:46:30;;;;;;;5.95;3.55;;;;;;;25.43;36.82;95527.69;5007416;28;20042;-73
2023/01/07 10:49:19;;;;;;;4.50;3.70;;;;;;;25.46;36.73;95532.13;5034029;28;20038;-77
2023/01/07 10:52:11;;;;;;;;;;;;;;;25.57;36.51;95523.81;5006400;28;20144;-74
2023/01/07 10:54:49;;;;;;;5.03;3.75;;;;;;;25.55;36.53;95523.59;5018491;28;19921;-75
2023/01/07 10:57:17;;;;;;;4.65;3.30;;;;;;;25.60;36.42;95487.25;5021285;28;20038;-73
2023/01/07 10:59:47;;;;;;;5.35;3.90;;;;;;;25.83;36.14;95509.16;5013847;28;20046;-74
2023/01/07 11:02:15;;;;;;;4.60;3.53;;;;;;;25.39;36.22;95456.84;5016268;28;20060;-72
2023/01/07 11:04:40;;;;;;;6.30;3.90;;;;;;;25.38;36.12;95449.16;5013034;28;20038;-72
2023/01/07 11:07:07;;;;;;;4.90;3.65;;;;;;;25.70;36.29;95491.16;5017800;28;20618;-74
2023/01/07 11:09:42;;;;;;;5.82;4.05;;;;;;;25.74;36.29;95497.81;4988496;28;20037;-74
2023/01/07 11:12:30;;;;;;;5.75;3.55;;;;;;;25.91;35.99;95496.38;5022468;28;20056;-73
2023/01/07 11:14:55;;;;;;;5.47;3.95;;;;;;;25.74;36.51;95486.13;5035340;28;20059;-74
2023/01/07 11:17:33;;;;;;;5.75;3.55;;;;;;;25.82;36.23;95493.25;4998268;28;20509;-74
2023/01/07 11:19:58;;;;;;;4.53;3.33;;;;;;;25.76;36.44;95484.38;5032491;28;20335;-74
2023/01/07 11:22:24;;;;;;;4.72;3.50;;;;;;;25.99;35.93;95491.06;5022076;28;20456;-74
2023/01/07 11:24:49;;;;;;;5.05;3.60;;;;;;;26.12;35.77;95486.44;5024968;28;20508;-73
2023/01/07 11:27:16;;;;;;;4.55;3.38;;;;;;;25.91;35.56;95468.28;5013862;28;20349;-75
2023/01/07 11:29:43;;;;;;;6.05;3.63;;;;;;;25.87;35.59;95452.16;4994185;28;20049;-73
2023/01/07 11:32:25;;;;;;;4.43;3.70;;;;;;;25.73;35.84;95402.59;5010012;28;20149;-74
2023/01/07 11:34:55;;;;;;;6.43;3.85;;;;;;;26.15;35.87;95471.72;4994950;28;20428;-74
2023/01/07 11:37:49;;;;;;;5.65;3.70;;;;;;;26.08;35.80;95466.81;5014477;28;20030;-74
2023/01/07 11:40:18;;;;;;;4.72;3.70;;;;;;;26.27;35.74;95470.31;5019551;28;20049;-74
2023/01/07 11:42:53;;;;;;;4.97;3.85;;;;;;;26.30;35.49;95466.56;5003247;28;20477;-74